sensor_id;sensor_type;location;lat;lon;timestamp;temperature;humidity
12460;DHT22;6295;49.452;8.466;2023-06-24T03:18:17;17.00;99.90
12460;DHT22;6295;49.452;8.466;2023-06-24T03:22:21;17.00;99.90
12460;DHT22;6295;49.452;8.466;2023-06-24T03:30:26;17.00;99.90
12460;DHT22;6295;49.452;8.466;2023-06-24T03:34:29;17.00;99.90
12460;DHT22;6295;49.452;8.466;2023-06-24T03:38:31;16.90;99.90
12460;DHT22;6295;49.452;8.466;2023-06-24T03:42:33;16.90;99.90
12460;DHT22;6295;49.452;8.466;2023-06-24T03:46:39;16.90;99.90
12460;DHT22;6295;49.452;8.466;2023-06-24T03:50:42;16.90;99.90
12460;DHT22;6295;49.452;8.466;2023-06-24T03:54:47;16.90;99.90
12460;DHT22;6295;49.452;8.466;2023-06-24T03:58:52;17.00;99.90
12460;DHT22;6295;49.452;8.466;2023-06-24T04:02:56;17.70;99.90
12460;DHT22;6295;49.452;8.466;2023-06-24T04:07:01;18.10;99.90
12460;DHT22;6295;49.452;8.466;2023-06-24T04:11:06;17.90;99.90
12460;DHT22;6295;49.452;8.466;2023-06-24T04:15:09;17.70;99.90
12460;DHT22;6295;49.452;8.466;2023-06-24T04:23:15;17.40;99.90
12460;DHT22;6295;49.452;8.466;2023-06-24T04:27:17;17.30;99.90
12460;DHT22;6295;49.452;8.466;2023-06-24T04:31:19;17.30;99.90
12460;DHT22;6295;49.452;8.466;2023-06-24T04:35:23;17.30;99.90
12460;DHT22;6295;49.452;8.466;2023-06-24T04:39:25;17.30;99.90
12460;DHT22;6295;49.452;8.466;2023-06-24T04:47:30;17.40;99.90
12460;DHT22;6295;49.452;8.466;2023-06-24T04:51:33;17.50;99.90
12460;DHT22;6295;49.452;8.466;2023-06-24T04:59:38;17.60;99.90
12460;DHT22;6295;49.452;8.466;2023-06-24T05:03:40;17.70;99.90
12460;DHT22;6295;49.452;8.466;2023-06-24T05:07:43;17.80;99.90
12460;DHT22;6295;49.452;8.466;2023-06-24T05:11:45;17.90;99.90
12460;DHT22;6295;49.452;8.466;2023-06-24T05:15:47;18.10;99.90
12460;DHT22;6295;49.452;8.466;2023-06-24T05:19:50;18.20;99.90
12460;DHT22;6295;49.452;8.466;2023-06-24T05:23:53;18.30;99.90
12460;DHT22;6295;49.452;8.466;2023-06-24T05:27:55;18.40;99.90
12460;DHT22;6295;49.452;8.466;2023-06-24T05:36:00;19.20;99.90
12460;DHT22;6295;49.452;8.466;2023-06-24T05:40:05;19.50;99.90
12460;DHT22;6295;49.452;8.466;2023-06-24T05:44:08;19.80;99.90
12460;DHT22;6295;49.452;8.466;2023-06-24T05:52:13;20.20;99.90
12460;DHT22;6295;49.452;8.466;2023-06-24T05:56:16;20.30;99.90
12460;DHT22;6295;49.452;8.466;2023-06-24T06:00:19;20.40;99.90
12460;DHT22;6295;49.452;8.466;2023-06-24T06:04:21;20.50;99.90
12460;DHT22;6295;49.452;8.466;2023-06-24T06:08:23;20.50;99.90
12460;DHT22;6295;49.452;8.466;2023-06-24T06:12:29;20.60;99.90
12460;DHT22;6295;49.452;8.466;2023-06-24T06:20:35;20.80;99.90
12460;DHT22;6295;49.452;8.466;2023-06-24T06:28:41;20.90;99.90
12460;DHT22;6295;49.452;8.466;2023-06-24T06:32:43;20.90;99.90
12460;DHT22;6295;49.452;8.466;2023-06-24T06:40:48;20.90;99.90
12460;DHT22;6295;49.452;8.466;2023-06-24T06:44:53;21.00;99.90
12460;DHT22;6295;49.452;8.466;2023-06-24T06:48:57;21.10;99.90
12460;DHT22;6295;49.452;8.466;2023-06-24T06:53:00;21.20;99.90
12460;DHT22;6295;49.452;8.466;2023-06-24T06:57:03;21.20;99.90
12460;DHT22;6295;49.452;8.466;2023-06-24T07:01:06;21.20;99.90
12460;DHT22;6295;49.452;8.466;2023-06-24T07:05:09;21.20;99.90
12460;DHT22;6295;49.452;8.466;2023-06-24T07:09:12;21.20;99.90
12460;DHT22;6295;49.452;8.466;2023-06-24T07:13:14;21.40;99.90
12460;DHT22;6295;49.452;8.466;2023-06-24T07:21:20;21.60;99.90
12460;DHT22;6295;49.452;8.466;2023-06-24T07:25:22;21.70;99.90
12460;DHT22;6295;49.452;8.466;2023-06-24T07:29:25;21.80;99.90
12460;DHT22;6295;49.452;8.466;2023-06-24T07:33:28;21.90;99.90
12460;DHT22;6295;49.452;8.466;2023-06-24T07:41:33;22.10;99.90
12460;DHT22;6295;49.452;8.466;2023-06-24T07:45:38;22.10;99.90
12460;DHT22;6295;49.452;8.466;2023-06-24T07:49:43;22.30;99.90
12460;DHT22;6295;49.452;8.466;2023-06-24T07:53:45;22.50;99.90
12460;DHT22;6295;49.452;8.466;2023-06-24T07:57:47;22.50;99.90
12460;DHT22;6295;49.452;8.466;2023-06-24T08:01:49;22.60;99.90
12460;DHT22;6295;49.452;8.466;2023-06-24T08:05:53;22.80;99.90
12460;DHT22;6295;49.452;8.466;2023-06-24T08:09:55;23.00;99.90
12460;DHT22;6295;49.452;8.466;2023-06-24T08:13:57;23.10;99.90
12460;DHT22;6295;49.452;8.466;2023-06-24T08:22:08;23.10;99.90
12460;DHT22;6295;49.452;8.466;2023-06-24T08:30:16;23.40;99.90
12460;DHT22;6295;49.452;8.466;2023-06-24T08:34:19;23.40;99.90
12460;DHT22;6295;49.452;8.466;2023-06-24T08:38:22;23.50;99.90
12460;DHT22;6295;49.452;8.466;2023-06-24T08:42:24;23.70;99.90
12460;DHT22;6295;49.452;8.466;2023-06-24T08:46:27;23.90;99.90
12460;DHT22;6295;49.452;8.466;2023-06-24T08:50:43;24.00;99.90
12460;DHT22;6295;49.452;8.466;2023-06-24T09:02:55;24.20;99.90
12460;DHT22;6295;49.452;8.466;2023-06-24T09:19:08;24.70;99.90
12460;DHT22;6295;49.452;8.466;2023-06-24T09:27:14;25.00;99.90
12460;DHT22;6295;49.452;8.466;2023-06-24T09:35:27;25.00;99.90
12460;DHT22;6295;49.452;8.466;2023-06-24T10:00:20;25.90;99.90
12460;DHT22;6295;49.452;8.466;2023-06-24T10:04:23;26.10;99.90
12460;DHT22;6295;49.452;8.466;2023-06-24T10:08:27;26.20;99.90
12460;DHT22;6295;49.452;8.466;2023-06-24T10:12:31;26.30;99.90
12460;DHT22;6295;49.452;8.466;2023-06-24T10:16:33;26.40;99.90
12460;DHT22;6295;49.452;8.466;2023-06-24T10:20:36;26.60;99.90
12460;DHT22;6295;49.452;8.466;2023-06-24T10:24:40;26.70;99.90
12460;DHT22;6295;49.452;8.466;2023-06-24T10:29:13;26.80;99.90
12460;DHT22;6295;49.452;8.466;2023-06-24T10:33:18;26.70;99.90
12460;DHT22;6295;49.452;8.466;2023-06-24T10:37:24;26.70;99.90
12460;DHT22;6295;49.452;8.466;2023-06-24T10:41:27;26.90;99.90
12460;DHT22;6295;49.452;8.466;2023-06-24T10:45:30;26.90;99.90
12460;DHT22;6295;49.452;8.466;2023-06-24T10:49:32;26.90;99.90
12460;DHT22;6295;49.452;8.466;2023-06-24T11:01:53;26.70;99.40
12460;DHT22;6295;49.452;8.466;2023-06-24T11:05:55;26.80;99.30
12460;DHT22;6295;49.452;8.466;2023-06-24T11:14:01;27.00;99.10
12460;DHT22;6295;49.452;8.466;2023-06-24T11:18:07;27.00;97.60
12460;DHT22;6295;49.452;8.466;2023-06-24T11:26:12;26.90;96.70
12460;DHT22;6295;49.452;8.466;2023-06-24T11:30:16;27.00;97.90
12460;DHT22;6295;49.452;8.466;2023-06-24T11:34:21;27.20;98.50
12460;DHT22;6295;49.452;8.466;2023-06-24T11:42:32;27.70;98.50
12460;DHT22;6295;49.452;8.466;2023-06-24T11:50:41;27.70;96.60
12460;DHT22;6295;49.452;8.466;2023-06-24T11:54:43;27.70;94.90
12460;DHT22;6295;49.452;8.466;2023-06-24T11:58:48;27.70;94.70
12460;DHT22;6295;49.452;8.466;2023-06-24T12:02:54;27.80;94.10
12460;DHT22;6295;49.452;8.466;2023-06-24T12:06:58;27.90;95.10
12460;DHT22;6295;49.452;8.466;2023-06-24T12:15:03;28.20;91.30
12460;DHT22;6295;49.452;8.466;2023-06-24T12:23:09;28.40;90.40
12460;DHT22;6295;49.452;8.466;2023-06-24T12:27:11;28.50;91.70
12460;DHT22;6295;49.452;8.466;2023-06-24T12:31:13;28.70;92.00
12460;DHT22;6295;49.452;8.466;2023-06-24T12:39:19;28.70;90.60
12460;DHT22;6295;49.452;8.466;2023-06-24T12:43:22;28.60;91.00
12460;DHT22;6295;49.452;8.466;2023-06-24T12:51:30;28.70;91.70
12460;DHT22;6295;49.452;8.466;2023-06-24T12:55:33;28.70;91.30
12460;DHT22;6295;49.452;8.466;2023-06-24T12:59:37;28.60;91.30
12460;DHT22;6295;49.452;8.466;2023-06-24T13:15:48;28.50;90.30
12460;DHT22;6295;49.452;8.466;2023-06-24T13:27:57;28.80;90.20
12460;DHT22;6295;49.452;8.466;2023-06-24T13:36:02;29.20;90.00
12460;DHT22;6295;49.452;8.466;2023-06-24T13:40:06;29.40;90.20
12460;DHT22;6295;49.452;8.466;2023-06-24T13:44:09;29.50;86.30
12460;DHT22;6295;49.452;8.466;2023-06-24T13:48:11;29.40;86.20
12460;DHT22;6295;49.452;8.466;2023-06-24T13:52:14;29.40;83.70
12460;DHT22;6295;49.452;8.466;2023-06-24T13:56:16;29.30;82.30
12460;DHT22;6295;49.452;8.466;2023-06-24T14:00:19;29.30;83.40
12460;DHT22;6295;49.452;8.466;2023-06-24T14:04:21;29.30;87.40
12460;DHT22;6295;49.452;8.466;2023-06-24T14:16:30;29.50;86.60
12460;DHT22;6295;49.452;8.466;2023-06-24T14:20:32;29.70;83.60
12460;DHT22;6295;49.452;8.466;2023-06-24T14:24:35;29.70;86.00
12460;DHT22;6295;49.452;8.466;2023-06-24T14:32:40;29.80;81.10
12460;DHT22;6295;49.452;8.466;2023-06-24T14:36:43;29.80;81.70
12460;DHT22;6295;49.452;8.466;2023-06-24T14:40:45;29.70;81.00
12460;DHT22;6295;49.452;8.466;2023-06-24T14:44:47;29.80;82.50
12460;DHT22;6295;49.452;8.466;2023-06-24T14:48:51;29.90;83.60
12460;DHT22;6295;49.452;8.466;2023-06-24T14:56:55;30.10;82.70
12460;DHT22;6295;49.452;8.466;2023-06-24T15:13:06;30.30;83.30
12460;DHT22;6295;49.452;8.466;2023-06-24T15:17:10;30.30;85.30
12460;DHT22;6295;49.452;8.466;2023-06-24T15:21:14;30.40;82.10
12460;DHT22;6295;49.452;8.466;2023-06-24T15:33:21;30.50;85.50
12460;DHT22;6295;49.452;8.466;2023-06-24T15:37:25;30.70;83.90
12460;DHT22;6295;49.452;8.466;2023-06-24T15:41:27;30.80;84.30
12460;DHT22;6295;49.452;8.466;2023-06-24T15:45:29;30.90;83.30
12460;DHT22;6295;49.452;8.466;2023-06-24T15:49:32;30.90;81.70
12460;DHT22;6295;49.452;8.466;2023-06-24T15:53:37;31.00;80.60
12460;DHT22;6295;49.452;8.466;2023-06-24T15:57:39;30.80;81.70
12460;DHT22;6295;49.452;8.466;2023-06-24T16:01:41;30.60;82.70
12460;DHT22;6295;49.452;8.466;2023-06-24T16:09:47;30.40;82.90
12460;DHT22;6295;49.452;8.466;2023-06-24T16:13:50;30.40;78.70
12460;DHT22;6295;49.452;8.466;2023-06-24T16:21:55;30.50;79.50
12460;DHT22;6295;49.452;8.466;2023-06-24T16:25:59;30.50;80.00
12460;DHT22;6295;49.452;8.466;2023-06-24T16:46:14;29.60;81.70
12460;DHT22;6295;49.452;8.466;2023-06-24T16:50:17;29.50;82.50
12460;DHT22;6295;49.452;8.466;2023-06-24T16:54:20;29.60;84.00
12460;DHT22;6295;49.452;8.466;2023-06-24T17:02:28;29.90;79.40
12460;DHT22;6295;49.452;8.466;2023-06-24T17:06:33;29.90;79.50
12460;DHT22;6295;49.452;8.466;2023-06-24T17:10:35;29.90;80.90
12460;DHT22;6295;49.452;8.466;2023-06-24T17:14:38;29.90;82.50
12460;DHT22;6295;49.452;8.466;2023-06-24T17:18:40;29.60;86.10
12460;DHT22;6295;49.452;8.466;2023-06-24T17:22:43;29.40;85.80
12460;DHT22;6295;49.452;8.466;2023-06-24T17:26:45;29.20;85.70
12460;DHT22;6295;49.452;8.466;2023-06-24T17:43:02;29.10;86.80
12460;DHT22;6295;49.452;8.466;2023-06-24T17:47:06;29.00;89.00
12460;DHT22;6295;49.452;8.466;2023-06-24T17:51:08;29.00;89.80
12460;DHT22;6295;49.452;8.466;2023-06-24T17:55:12;29.00;88.00
12460;DHT22;6295;49.452;8.466;2023-06-24T17:59:16;29.10;85.80
12460;DHT22;6295;49.452;8.466;2023-06-24T18:11:26;29.60;86.40
12460;DHT22;6295;49.452;8.466;2023-06-24T18:15:29;29.60;85.40
12460;DHT22;6295;49.452;8.466;2023-06-24T18:19:32;29.80;83.80
12460;DHT22;6295;49.452;8.466;2023-06-24T18:23:36;29.70;84.20
12460;DHT22;6295;49.452;8.466;2023-06-24T18:27:38;29.60;85.30
12460;DHT22;6295;49.452;8.466;2023-06-24T18:31:42;29.60;88.20
12460;DHT22;6295;49.452;8.466;2023-06-24T18:35:46;29.50;88.60
12460;DHT22;6295;49.452;8.466;2023-06-24T18:39:48;29.40;90.50
12460;DHT22;6295;49.452;8.466;2023-06-24T18:43:50;29.00;92.00
12460;DHT22;6295;49.452;8.466;2023-06-24T18:47:52;28.90;92.70
12460;DHT22;6295;49.452;8.466;2023-06-24T18:51:57;29.00;92.80
12460;DHT22;6295;49.452;8.466;2023-06-24T18:56:03;29.10;93.20
